sensor_id;sensor_type;location;lat;lon;timestamp;temperature;humidity
58582;DHT22;44361;51.476;5.700;2023-01-16T00:00:18;5.40;99.90
58582;DHT22;44361;51.476;5.700;2023-01-16T00:02:43;5.40;99.90
58582;DHT22;44361;51.476;5.700;2023-01-16T00:05:09;5.30;99.90
58582;DHT22;44361;51.476;5.700;2023-01-16T00:07:34;5.30;99.90
58582;DHT22;44361;51.476;5.700;2023-01-16T00:10:00;5.30;99.90
58582;DHT22;44361;51.476;5.700;2023-01-16T00:12:25;5.20;99.90
58582;DHT22;44361;51.476;5.700;2023-01-16T00:14:51;5.10;99.90
58582;DHT22;44361;51.476;5.700;2023-01-16T00:17:16;4.90;99.90
58582;DHT22;44361;51.476;5.700;2023-01-16T00:19:42;5.00;99.90
58582;DHT22;44361;51.476;5.700;2023-01-16T00:22:07;5.00;99.90
58582;DHT22;44361;51.476;5.700;2023-01-16T00:24:33;5.00;99.90
58582;DHT22;44361;51.476;5.700;2023-01-16T00:26:58;4.90;99.90
58582;DHT22;44361;51.476;5.700;2023-01-16T00:29:24;4.90;99.90
58582;DHT22;44361;51.476;5.700;2023-01-16T00:31:49;4.80;99.90
58582;DHT22;44361;51.476;5.700;2023-01-16T00:34:15;4.70;99.90
58582;DHT22;44361;51.476;5.700;2023-01-16T00:36:40;4.60;99.90
58582;DHT22;44361;51.476;5.700;2023-01-16T00:39:06;4.60;99.90
58582;DHT22;44361;51.476;5.700;2023-01-16T00:41:32;4.50;99.90
58582;DHT22;44361;51.476;5.700;2023-01-16T00:43:58;4.50;99.90
58582;DHT22;44361;51.476;5.700;2023-01-16T00:46:25;4.40;99.90
58582;DHT22;44361;51.476;5.700;2023-01-16T00:48:51;4.30;99.90
58582;DHT22;44361;51.476;5.700;2023-01-16T00:51:16;4.30;99.90
58582;DHT22;44361;51.476;5.700;2023-01-16T00:53:42;4.20;99.90
58582;DHT22;44361;51.476;5.700;2023-01-16T00:56:07;4.10;99.90
58582;DHT22;44361;51.476;5.700;2023-01-16T00:58:33;4.00;99.90
58582;DHT22;44361;51.476;5.700;2023-01-16T01:01:00;4.00;99.90
58582;DHT22;44361;51.476;5.700;2023-01-16T01:03:27;4.20;99.90
58582;DHT22;44361;51.476;5.700;2023-01-16T01:05:53;4.20;99.90
58582;DHT22;44361;51.476;5.700;2023-01-16T01:08:19;4.10;99.90
58582;DHT22;44361;51.476;5.700;2023-01-16T01:10:44;4.00;99.90
58582;DHT22;44361;51.476;5.700;2023-01-16T01:13:10;4.00;99.90
58582;DHT22;44361;51.476;5.700;2023-01-16T01:15:36;4.00;99.90
58582;DHT22;44361;51.476;5.700;2023-01-16T01:18:02;3.90;99.90
58582;DHT22;44361;51.476;5.700;2023-01-16T01:20:27;3.80;99.90
58582;DHT22;44361;51.476;5.700;2023-01-16T01:22:53;3.70;99.90
58582;DHT22;44361;51.476;5.700;2023-01-16T01:25:19;3.60;99.90
58582;DHT22;44361;51.476;5.700;2023-01-16T01:27:45;3.60;99.90
58582;DHT22;44361;51.476;5.700;2023-01-16T01:30:10;3.60;99.90
58582;DHT22;44361;51.476;5.700;2023-01-16T01:32:36;3.50;99.90
58582;DHT22;44361;51.476;5.700;2023-01-16T01:35:06;3.50;99.90
58582;DHT22;44361;51.476;5.700;2023-01-16T01:37:32;3.50;99.90
58582;DHT22;44361;51.476;5.700;2023-01-16T01:39:58;3.40;99.90
58582;DHT22;44361;51.476;5.700;2023-01-16T01:42:23;3.40;99.90
58582;DHT22;44361;51.476;5.700;2023-01-16T01:45:25;3.40;99.90
58582;DHT22;44361;51.476;5.700;2023-01-16T01:50:27;3.30;99.90
58582;DHT22;44361;51.476;5.700;2023-01-16T01:52:57;3.30;99.90
58582;DHT22;44361;51.476;5.700;2023-01-16T01:55:24;3.20;99.90
58582;DHT22;44361;51.476;5.700;2023-01-16T01:57:54;3.20;99.90
58582;DHT22;44361;51.476;5.700;2023-01-16T02:00:23;3.20;99.90
58582;DHT22;44361;51.476;5.700;2023-01-16T02:03:05;3.10;99.90
58582;DHT22;44361;51.476;5.700;2023-01-16T02:05:38;3.10;99.90
58582;DHT22;44361;51.476;5.700;2023-01-16T02:08:04;3.10;99.90
58582;DHT22;44361;51.476;5.700;2023-01-16T02:10:39;3.10;99.90
58582;DHT22;44361;51.476;5.700;2023-01-16T02:13:05;3.10;99.90
58582;DHT22;44361;51.476;5.700;2023-01-16T02:15:30;3.10;99.90
58582;DHT22;44361;51.476;5.700;2023-01-16T02:17:56;3.10;99.90
58582;DHT22;44361;51.476;5.700;2023-01-16T02:21:01;3.00;99.90
58582;DHT22;44361;51.476;5.700;2023-01-16T02:26:50;3.00;99.90
58582;DHT22;44361;51.476;5.700;2023-01-16T02:32:55;2.90;99.90
58582;DHT22;44361;51.476;5.700;2023-01-16T02:35:34;2.90;99.90
58582;DHT22;44361;51.476;5.700;2023-01-16T02:38:30;2.90;99.90
58582;DHT22;44361;51.476;5.700;2023-01-16T02:46:32;2.90;99.90
58582;DHT22;44361;51.476;5.700;2023-01-16T02:49:21;2.90;99.90
58582;DHT22;44361;51.476;5.700;2023-01-16T02:52:13;2.90;99.90
58582;DHT22;44361;51.476;5.700;2023-01-16T02:54:50;2.90;99.90
58582;DHT22;44361;51.476;5.700;2023-01-16T02:57:20;2.90;99.90
58582;DHT22;44361;51.476;5.700;2023-01-16T02:59:48;2.90;99.90
58582;DHT22;44361;51.476;5.700;2023-01-16T03:02:14;3.00;99.90
58582;DHT22;44361;51.476;5.700;2023-01-16T03:04:49;2.90;99.90
58582;DHT22;44361;51.476;5.700;2023-01-16T03:16:32;2.80;99.90
58582;DHT22;44361;51.476;5.700;2023-01-16T03:18:33;2.80;99.90
58582;DHT22;44361;51.476;5.700;2023-01-16T03:21:08;2.80;99.90
58582;DHT22;44361;51.476;5.700;2023-01-16T03:23:56;2.80;99.90
58582;DHT22;44361;51.476;5.700;2023-01-16T03:26:46;2.90;99.90
58582;DHT22;44361;51.476;5.700;2023-01-16T03:29:32;2.90;99.90
58582;DHT22;44361;51.476;5.700;2023-01-16T03:32:09;3.00;99.90
58582;DHT22;44361;51.476;5.700;2023-01-16T03:34:44;3.00;99.90
58582;DHT22;44361;51.476;5.700;2023-01-16T03:37:19;3.00;99.90
58582;DHT22;44361;51.476;5.700;2023-01-16T03:39:53;3.10;99.90
58582;DHT22;44361;51.476;5.700;2023-01-16T03:42:26;3.10;99.90
58582;DHT22;44361;51.476;5.700;2023-01-16T03:44:57;3.20;99.90
58582;DHT22;44361;51.476;5.700;2023-01-16T03:47:34;3.30;99.90
58582;DHT22;44361;51.476;5.700;2023-01-16T03:50:04;3.20;99.90
58582;DHT22;44361;51.476;5.700;2023-01-16T03:52:35;3.20;99.90
58582;DHT22;44361;51.476;5.700;2023-01-16T03:55:16;3.30;99.90
58582;DHT22;44361;51.476;5.700;2023-01-16T03:57:49;3.30;99.90
58582;DHT22;44361;51.476;5.700;2023-01-16T04:00:16;3.40;99.90
58582;DHT22;44361;51.476;5.700;2023-01-16T04:02:53;3.40;99.90
58582;DHT22;44361;51.476;5.700;2023-01-16T04:05:27;3.50;99.90
58582;DHT22;44361;51.476;5.700;2023-01-16T04:07:59;3.40;99.90
58582;DHT22;44361;51.476;5.700;2023-01-16T04:10:29;3.50;99.90
58582;DHT22;44361;51.476;5.700;2023-01-16T04:13:04;3.60;99.90
58582;DHT22;44361;51.476;5.700;2023-01-16T04:15:32;3.50;99.90
58582;DHT22;44361;51.476;5.700;2023-01-16T04:17:59;3.50;99.90
58582;DHT22;44361;51.476;5.700;2023-01-16T04:20:25;3.60;99.90
58582;DHT22;44361;51.476;5.700;2023-01-16T04:22:52;3.60;99.90
58582;DHT22;44361;51.476;5.700;2023-01-16T04:25:19;3.60;99.90
58582;DHT22;44361;51.476;5.700;2023-01-16T04:27:45;3.70;99.90
58582;DHT22;44361;51.476;5.700;2023-01-16T04:30:11;3.70;99.90
58582;DHT22;44361;51.476;5.700;2023-01-16T04:32:36;3.80;99.90
58582;DHT22;44361;51.476;5.700;2023-01-16T04:35:03;3.80;99.90
58582;DHT22;44361;51.476;5.700;2023-01-16T04:37:29;3.80;99.90
58582;DHT22;44361;51.476;5.700;2023-01-16T04:39:54;3.80;99.90
58582;DHT22;44361;51.476;5.700;2023-01-16T04:42:20;3.80;99.90
58582;DHT22;44361;51.476;5.700;2023-01-16T04:44:45;3.90;99.90
58582;DHT22;44361;51.476;5.700;2023-01-16T04:47:11;3.90;99.90
58582;DHT22;44361;51.476;5.700;2023-01-16T04:49:36;4.00;99.90
58582;DHT22;44361;51.476;5.700;2023-01-16T04:52:02;4.00;99.90
58582;DHT22;44361;51.476;5.700;2023-01-16T04:54:28;4.00;99.90
58582;DHT22;44361;51.476;5.700;2023-01-16T04:56:53;4.00;99.90
58582;DHT22;44361;51.476;5.700;2023-01-16T04:59:19;4.00;99.90
58582;DHT22;44361;51.476;5.700;2023-01-16T05:01:45;4.10;99.90
58582;DHT22;44361;51.476;5.700;2023-01-16T05:04:13;4.10;99.90
58582;DHT22;44361;51.476;5.700;2023-01-16T05:06:39;4.20;99.90
58582;DHT22;44361;51.476;5.700;2023-01-16T05:09:05;4.20;99.90
58582;DHT22;44361;51.476;5.700;2023-01-16T05:11:31;4.30;99.90
58582;DHT22;44361;51.476;5.700;2023-01-16T05:13:57;4.30;99.90
58582;DHT22;44361;51.476;5.700;2023-01-16T05:16:23;4.40;99.90
58582;DHT22;44361;51.476;5.700;2023-01-16T05:18:49;4.40;99.90
58582;DHT22;44361;51.476;5.700;2023-01-16T05:21:14;4.40;99.90
58582;DHT22;44361;51.476;5.700;2023-01-16T05:23:40;4.40;99.90
58582;DHT22;44361;51.476;5.700;2023-01-16T05:26:06;4.40;99.90
58582;DHT22;44361;51.476;5.700;2023-01-16T05:28:33;4.40;99.90
58582;DHT22;44361;51.476;5.700;2023-01-16T05:30:59;4.50;99.90
58582;DHT22;44361;51.476;5.700;2023-01-16T05:33:24;4.50;99.90
58582;DHT22;44361;51.476;5.700;2023-01-16T05:35:50;4.40;99.90
58582;DHT22;44361;51.476;5.700;2023-01-16T05:38:16;4.50;99.90
58582;DHT22;44361;51.476;5.700;2023-01-16T05:40:43;4.50;99.90
58582;DHT22;44361;51.476;5.700;2023-01-16T05:43:09;4.50;99.90
58582;DHT22;44361;51.476;5.700;2023-01-16T05:45:35;4.50;99.90
58582;DHT22;44361;51.476;5.700;2023-01-16T05:48:01;4.50;99.90
58582;DHT22;44361;51.476;5.700;2023-01-16T05:50:27;4.50;99.90
58582;DHT22;44361;51.476;5.700;2023-01-16T05:52:52;4.50;99.90
58582;DHT22;44361;51.476;5.700;2023-01-16T05:55:18;4.60;99.90
58582;DHT22;44361;51.476;5.700;2023-01-16T05:57:43;4.60;99.90
58582;DHT22;44361;51.476;5.700;2023-01-16T06:00:10;4.60;99.90
58582;DHT22;44361;51.476;5.700;2023-01-16T06:02:35;4.60;99.90
58582;DHT22;44361;51.476;5.700;2023-01-16T06:05:01;4.60;99.90
58582;DHT22;44361;51.476;5.700;2023-01-16T06:07:27;4.60;99.90
58582;DHT22;44361;51.476;5.700;2023-01-16T06:09:53;4.60;99.90
58582;DHT22;44361;51.476;5.700;2023-01-16T06:12:19;4.60;99.90
58582;DHT22;44361;51.476;5.700;2023-01-16T06:14:45;4.60;99.90
58582;DHT22;44361;51.476;5.700;2023-01-16T06:17:11;4.60;99.90
58582;DHT22;44361;51.476;5.700;2023-01-16T06:19:40;4.60;99.90
58582;DHT22;44361;51.476;5.700;2023-01-16T06:22:05;4.50;99.90
58582;DHT22;44361;51.476;5.700;2023-01-16T06:24:31;4.50;99.90
58582;DHT22;44361;51.476;5.700;2023-01-16T06:26:56;4.40;99.90
58582;DHT22;44361;51.476;5.700;2023-01-16T06:29:22;4.40;99.90
58582;DHT22;44361;51.476;5.700;2023-01-16T06:31:47;4.30;99.90
58582;DHT22;44361;51.476;5.700;2023-01-16T06:34:13;4.30;99.90
58582;DHT22;44361;51.476;5.700;2023-01-16T06:36:38;4.30;99.90
58582;DHT22;44361;51.476;5.700;2023-01-16T06:39:04;4.30;99.90
58582;DHT22;44361;51.476;5.700;2023-01-16T06:41:29;4.20;99.90
58582;DHT22;44361;51.476;5.700;2023-01-16T06:43:55;4.30;99.90
58582;DHT22;44361;51.476;5.700;2023-01-16T06:46:20;4.30;99.90
58582;DHT22;44361;51.476;5.700;2023-01-16T06:48:46;4.30;99.90
58582;DHT22;44361;51.476;5.700;2023-01-16T06:51:11;4.30;99.90
58582;DHT22;44361;51.476;5.700;2023-01-16T06:53:37;4.30;99.90
58582;DHT22;44361;51.476;5.700;2023-01-16T06:56:03;4.30;99.90
58582;DHT22;44361;51.476;5.700;2023-01-16T06:58:28;4.30;99.90
58582;DHT22;44361;51.476;5.700;2023-01-16T07:00:54;4.30;99.90
58582;DHT22;44361;51.476;5.700;2023-01-16T07:03:20;4.30;99.90
58582;DHT22;44361;51.476;5.700;2023-01-16T07:05:46;4.20;99.90
58582;DHT22;44361;51.476;5.700;2023-01-16T07:08:12;4.20;99.90
58582;DHT22;44361;51.476;5.700;2023-01-16T07:10:38;4.20;99.90
58582;DHT22;44361;51.476;5.700;2023-01-16T07:13:04;4.20;99.90
58582;DHT22;44361;51.476;5.700;2023-01-16T07:15:30;4.20;99.90
58582;DHT22;44361;51.476;5.700;2023-01-16T07:18:16;4.30;99.90
58582;DHT22;44361;51.476;5.700;2023-01-16T07:21:09;4.30;99.90
58582;DHT22;44361;51.476;5.700;2023-01-16T07:24:04;4.30;99.90
58582;DHT22;44361;51.476;5.700;2023-01-16T07:26:31;4.30;99.90
58582;DHT22;44361;51.476;5.700;2023-01-16T07:28:57;4.30;99.90
58582;DHT22;44361;51.476;5.700;2023-01-16T07:31:24;4.30;99.90
58582;DHT22;44361;51.476;5.700;2023-01-16T07:33:49;4.30;99.90
58582;DHT22;44361;51.476;5.700;2023-01-16T07:36:15;4.30;99.90
58582;DHT22;44361;51.476;5.700;2023-01-16T07:38:40;4.30;99.90
58582;DHT22;44361;51.476;5.700;2023-01-16T07:41:07;4.40;99.90
58582;DHT22;44361;51.476;5.700;2023-01-16T07:43:32;4.40;99.90
58582;DHT22;44361;51.476;5.700;2023-01-16T07:45:58;4.40;99.90
58582;DHT22;44361;51.476;5.700;2023-01-16T07:48:24;4.30;99.90
58582;DHT22;44361;51.476;5.700;2023-01-16T07:50:54;4.40;99.90
58582;DHT22;44361;51.476;5.700;2023-01-16T07:53:21;4.30;99.90
58582;DHT22;44361;51.476;5.700;2023-01-16T07:55:55;4.40;99.90
58582;DHT22;44361;51.476;5.700;2023-01-16T07:58:21;4.40;99.90
58582;DHT22;44361;51.476;5.700;2023-01-16T08:00:47;4.40;99.90
58582;DHT22;44361;51.476;5.700;2023-01-16T08:03:14;4.50;99.90
58582;DHT22;44361;51.476;5.700;2023-01-16T08:05:40;4.50;99.90
58582;DHT22;44361;51.476;5.700;2023-01-16T08:08:06;4.50;99.90
58582;DHT22;44361;51.476;5.700;2023-01-16T08:10:32;4.50;99.90
58582;DHT22;44361;51.476;5.700;2023-01-16T08:12:57;4.50;99.90
58582;DHT22;44361;51.476;5.700;2023-01-16T08:15:23;4.50;99.90
58582;DHT22;44361;51.476;5.700;2023-01-16T08:17:48;4.60;99.90
58582;DHT22;44361;51.476;5.700;2023-01-16T08:20:14;4.60;99.90
58582;DHT22;44361;51.476;5.700;2023-01-16T08:22:47;4.70;99.90
58582;DHT22;44361;51.476;5.700;2023-01-16T08:25:14;4.70;99.90
58582;DHT22;44361;51.476;5.700;2023-01-16T08:27:40;4.70;99.90
58582;DHT22;44361;51.476;5.700;2023-01-16T08:30:07;4.70;99.90
58582;DHT22;44361;51.476;5.700;2023-01-16T08:32:32;4.70;99.90
58582;DHT22;44361;51.476;5.700;2023-01-16T08:34:58;4.70;99.90
58582;DHT22;44361;51.476;5.700;2023-01-16T08:37:23;4.70;99.90
58582;DHT22;44361;51.476;5.700;2023-01-16T08:39:49;4.70;99.90
58582;DHT22;44361;51.476;5.700;2023-01-16T08:42:14;4.70;99.90
58582;DHT22;44361;51.476;5.700;2023-01-16T08:44:58;4.70;99.90
58582;DHT22;44361;51.476;5.700;2023-01-16T08:47:42;4.80;99.90
58582;DHT22;44361;51.476;5.700;2023-01-16T08:50:27;4.70;99.90
58582;DHT22;44361;51.476;5.700;2023-01-16T08:53:11;4.80;99.90
58582;DHT22;44361;51.476;5.700;2023-01-16T08:55:37;4.70;99.90
58582;DHT22;44361;51.476;5.700;2023-01-16T08:58:04;4.70;99.90
58582;DHT22;44361;51.476;5.700;2023-01-16T09:00:30;4.80;99.90
58582;DHT22;44361;51.476;5.700;2023-01-16T09:02:56;4.80;99.90
58582;DHT22;44361;51.476;5.700;2023-01-16T09:05:23;4.80;99.90
58582;DHT22;44361;51.476;5.700;2023-01-16T09:07:49;4.80;99.90
58582;DHT22;44361;51.476;5.700;2023-01-16T09:10:15;4.80;99.90
58582;DHT22;44361;51.476;5.700;2023-01-16T09:12:40;4.70;99.90
58582;DHT22;44361;51.476;5.700;2023-01-16T09:15:25;4.80;99.90
58582;DHT22;44361;51.476;5.700;2023-01-16T09:17:51;4.80;99.90
58582;DHT22;44361;51.476;5.700;2023-01-16T09:20:17;4.80;99.90
58582;DHT22;44361;51.476;5.700;2023-01-16T09:22:42;4.80;99.90
58582;DHT22;44361;51.476;5.700;2023-01-16T09:25:08;4.80;99.90
58582;DHT22;44361;51.476;5.700;2023-01-16T09:27:34;4.70;99.90
58582;DHT22;44361;51.476;5.700;2023-01-16T09:30:00;4.70;99.90
58582;DHT22;44361;51.476;5.700;2023-01-16T09:32:26;4.70;99.90
58582;DHT22;44361;51.476;5.700;2023-01-16T09:34:52;4.70;99.90
58582;DHT22;44361;51.476;5.700;2023-01-16T09:37:17;4.70;99.90
58582;DHT22;44361;51.476;5.700;2023-01-16T09:39:43;4.70;99.90
58582;DHT22;44361;51.476;5.700;2023-01-16T09:45:13;4.70;99.90
58582;DHT22;44361;51.476;5.700;2023-01-16T09:47:41;4.80;99.90
58582;DHT22;44361;51.476;5.700;2023-01-16T09:50:22;4.80;99.90
58582;DHT22;44361;51.476;5.700;2023-01-16T09:52:49;4.80;99.90
58582;DHT22;44361;51.476;5.700;2023-01-16T09:55:50;4.80;99.90
58582;DHT22;44361;51.476;5.700;2023-01-16T09:58:39;4.90;99.90
58582;DHT22;44361;51.476;5.700;2023-01-16T10:01:09;4.90;99.90
58582;DHT22;44361;51.476;5.700;2023-01-16T10:03:36;4.90;99.90
58582;DHT22;44361;51.476;5.700;2023-01-16T10:06:31;4.90;99.90
58582;DHT22;44361;51.476;5.700;2023-01-16T10:11:42;5.10;99.90
58582;DHT22;44361;51.476;5.700;2023-01-16T10:14:36;5.20;99.90
58582;DHT22;44361;51.476;5.700;2023-01-16T10:17:22;5.20;99.90
58582;DHT22;44361;51.476;5.700;2023-01-16T10:22:41;5.30;99.90
58582;DHT22;44361;51.476;5.700;2023-01-16T10:25:26;5.30;99.90
58582;DHT22;44361;51.476;5.700;2023-01-16T10:30:37;5.50;99.90
58582;DHT22;44361;51.476;5.700;2023-01-16T10:33:35;5.70;99.90
58582;DHT22;44361;51.476;5.700;2023-01-16T10:36:04;5.80;99.90
58582;DHT22;44361;51.476;5.700;2023-01-16T10:38:44;5.90;99.90
58582;DHT22;44361;51.476;5.700;2023-01-16T10:41:23;6.10;99.90
58582;DHT22;44361;51.476;5.700;2023-01-16T10:44:34;6.10;99.90
58582;DHT22;44361;51.476;5.700;2023-01-16T10:47:32;6.00;99.90
58582;DHT22;44361;51.476;5.700;2023-01-16T10:50:18;5.90;99.90
58582;DHT22;44361;51.476;5.700;2023-01-16T10:52:46;5.80;99.90
58582;DHT22;44361;51.476;5.700;2023-01-16T10:55:13;5.80;99.90
58582;DHT22;44361;51.476;5.700;2023-01-16T10:58:07;5.80;99.90
58582;DHT22;44361;51.476;5.700;2023-01-16T11:00:33;5.80;99.90
58582;DHT22;44361;51.476;5.700;2023-01-16T11:03:10;5.70;99.90
58582;DHT22;44361;51.476;5.700;2023-01-16T11:05:37;5.70;99.90
58582;DHT22;44361;51.476;5.700;2023-01-16T11:08:09;5.70;99.90
58582;DHT22;44361;51.476;5.700;2023-01-16T11:10:36;5.60;99.90
58582;DHT22;44361;51.476;5.700;2023-01-16T11:13:01;5.60;99.90
58582;DHT22;44361;51.476;5.700;2023-01-16T11:16:04;5.70;99.90
58582;DHT22;44361;51.476;5.700;2023-01-16T11:18:49;5.70;99.90
58582;DHT22;44361;51.476;5.700;2023-01-16T11:21:16;5.80;99.90
58582;DHT22;44361;51.476;5.700;2023-01-16T11:23:44;5.80;99.90
58582;DHT22;44361;51.476;5.700;2023-01-16T11:26:12;5.80;99.90
58582;DHT22;44361;51.476;5.700;2023-01-16T11:28:43;5.90;99.90
58582;DHT22;44361;51.476;5.700;2023-01-16T11:31:19;6.00;99.90
58582;DHT22;44361;51.476;5.700;2023-01-16T11:33:48;6.20;99.90
58582;DHT22;44361;51.476;5.700;2023-01-16T11:36:19;6.30;99.90
58582;DHT22;44361;51.476;5.700;2023-01-16T11:38:47;6.40;99.90
58582;DHT22;44361;51.476;5.700;2023-01-16T11:41:24;6.40;99.90
58582;DHT22;44361;51.476;5.700;2023-01-16T11:46:58;6.40;99.90
58582;DHT22;44361;51.476;5.700;2023-01-16T11:49:45;6.40;99.90
58582;DHT22;44361;51.476;5.700;2023-01-16T11:52:16;6.40;99.90
58582;DHT22;44361;51.476;5.700;2023-01-16T11:54:56;6.30;99.90
58582;DHT22;44361;51.476;5.700;2023-01-16T11:57:56;6.20;99.90
58582;DHT22;44361;51.476;5.700;2023-01-16T12:00:39;6.20;99.90
58582;DHT22;44361;51.476;5.700;2023-01-16T12:03:48;6.20;99.90
58582;DHT22;44361;51.476;5.700;2023-01-16T12:08:59;6.30;99.90
58582;DHT22;44361;51.476;5.700;2023-01-16T12:11:51;6.30;99.90
58582;DHT22;44361;51.476;5.700;2023-01-16T12:14:30;6.30;99.90
58582;DHT22;44361;51.476;5.700;2023-01-16T12:28:38;6.80;99.90
58582;DHT22;44361;51.476;5.700;2023-01-16T12:31:19;6.90;99.90
58582;DHT22;44361;51.476;5.700;2023-01-16T12:37:41;7.00;99.90
58582;DHT22;44361;51.476;5.700;2023-01-16T12:42:57;7.10;99.90
58582;DHT22;44361;51.476;5.700;2023-01-16T12:45:53;7.10;99.90
58582;DHT22;44361;51.476;5.700;2023-01-16T12:48:56;7.10;99.90
58582;DHT22;44361;51.476;5.700;2023-01-16T12:54:40;7.20;99.90
58582;DHT22;44361;51.476;5.700;2023-01-16T12:57:31;7.20;99.90
58582;DHT22;44361;51.476;5.700;2023-01-16T13:02:52;7.10;99.90
58582;DHT22;44361;51.476;5.700;2023-01-16T13:05:39;7.10;99.90
58582;DHT22;44361;51.476;5.700;2023-01-16T13:08:19;7.00;99.90
58582;DHT22;44361;51.476;5.700;2023-01-16T13:11:01;7.00;99.90
58582;DHT22;44361;51.476;5.700;2023-01-16T13:14:01;7.00;99.90
58582;DHT22;44361;51.476;5.700;2023-01-16T13:16:37;7.10;99.90
58582;DHT22;44361;51.476;5.700;2023-01-16T13:19:11;7.10;99.90
58582;DHT22;44361;51.476;5.700;2023-01-16T13:21:54;7.10;99.90
58582;DHT22;44361;51.476;5.700;2023-01-16T13:24:29;7.00;99.90
58582;DHT22;44361;51.476;5.700;2023-01-16T13:27:02;7.00;99.90
58582;DHT22;44361;51.476;5.700;2023-01-16T13:29:45;7.00;99.90
58582;DHT22;44361;51.476;5.700;2023-01-16T13:35:01;6.80;99.90
58582;DHT22;44361;51.476;5.700;2023-01-16T13:42:58;6.70;99.90
58582;DHT22;44361;51.476;5.700;2023-01-16T13:45:45;6.70;99.90
58582;DHT22;44361;51.476;5.700;2023-01-16T13:48:27;6.70;99.90
58582;DHT22;44361;51.476;5.700;2023-01-16T13:51:02;6.60;99.90
58582;DHT22;44361;51.476;5.700;2023-01-16T13:53:29;6.60;99.90
58582;DHT22;44361;51.476;5.700;2023-01-16T13:56:12;6.60;99.90
58582;DHT22;44361;51.476;5.700;2023-01-16T13:58:40;6.60;99.90
58582;DHT22;44361;51.476;5.700;2023-01-16T14:01:37;6.50;99.90
58582;DHT22;44361;51.476;5.700;2023-01-16T14:06:55;6.50;99.90
58582;DHT22;44361;51.476;5.700;2023-01-16T14:10:14;6.50;99.90
58582;DHT22;44361;51.476;5.700;2023-01-16T14:15:59;6.60;99.90
58582;DHT22;44361;51.476;5.700;2023-01-16T14:21:27;6.60;99.90
58582;DHT22;44361;51.476;5.700;2023-01-16T14:23:59;6.60;99.90
58582;DHT22;44361;51.476;5.700;2023-01-16T14:29:22;6.50;99.90
58582;DHT22;44361;51.476;5.700;2023-01-16T14:31:54;6.40;99.90
58582;DHT22;44361;51.476;5.700;2023-01-16T14:34:37;6.40;99.90
58582;DHT22;44361;51.476;5.700;2023-01-16T14:37:26;6.40;99.90
58582;DHT22;44361;51.476;5.700;2023-01-16T14:39:59;6.30;99.90
58582;DHT22;44361;51.476;5.700;2023-01-16T14:42:33;6.30;99.90
58582;DHT22;44361;51.476;5.700;2023-01-16T14:45:27;6.30;99.90
58582;DHT22;44361;51.476;5.700;2023-01-16T14:51:01;6.40;99.90
58582;DHT22;44361;51.476;5.700;2023-01-16T14:56:52;6.30;99.90
58582;DHT22;44361;51.476;5.700;2023-01-16T14:59:29;6.30;99.90
58582;DHT22;44361;51.476;5.700;2023-01-16T15:02:19;6.20;99.90
58582;DHT22;44361;51.476;5.700;2023-01-16T15:07:42;6.10;99.90
58582;DHT22;44361;51.476;5.700;2023-01-16T15:10:19;6.20;99.90
58582;DHT22;44361;51.476;5.700;2023-01-16T15:12:45;6.10;99.90
58582;DHT22;44361;51.476;5.700;2023-01-16T15:15:28;6.10;99.90
58582;DHT22;44361;51.476;5.700;2023-01-16T15:17:56;6.10;99.90
58582;DHT22;44361;51.476;5.700;2023-01-16T15:20:45;6.10;99.90
58582;DHT22;44361;51.476;5.700;2023-01-16T15:23:55;6.10;99.90
58582;DHT22;44361;51.476;5.700;2023-01-16T15:31:31;6.10;99.90
58582;DHT22;44361;51.476;5.700;2023-01-16T15:36:37;6.10;99.90
58582;DHT22;44361;51.476;5.700;2023-01-16T15:41:48;6.00;99.90
58582;DHT22;44361;51.476;5.700;2023-01-16T15:44:36;6.10;99.90
58582;DHT22;44361;51.476;5.700;2023-01-16T15:50:15;6.00;99.90
58582;DHT22;44361;51.476;5.700;2023-01-16T15:52:41;6.00;99.90
58582;DHT22;44361;51.476;5.700;2023-01-16T15:55:11;6.00;99.90
58582;DHT22;44361;51.476;5.700;2023-01-16T15:57:45;6.00;99.90
58582;DHT22;44361;51.476;5.700;2023-01-16T16:00:38;6.00;99.90
58582;DHT22;44361;51.476;5.700;2023-01-16T16:03:06;5.90;99.90
58582;DHT22;44361;51.476;5.700;2023-01-16T16:05:34;5.90;99.90
58582;DHT22;44361;51.476;5.700;2023-01-16T16:08:00;5.90;99.90
58582;DHT22;44361;51.476;5.700;2023-01-16T16:10:27;5.90;99.90
58582;DHT22;44361;51.476;5.700;2023-01-16T16:13:16;5.90;99.90
58582;DHT22;44361;51.476;5.700;2023-01-16T16:15:59;5.90;99.90
58582;DHT22;44361;51.476;5.700;2023-01-16T16:18:57;6.00;99.90
58582;DHT22;44361;51.476;5.700;2023-01-16T16:21:27;6.00;99.90
58582;DHT22;44361;51.476;5.700;2023-01-16T16:23:58;6.00;99.90
58582;DHT22;44361;51.476;5.700;2023-01-16T16:26:24;6.00;99.90
58582;DHT22;44361;51.476;5.700;2023-01-16T16:28:50;5.90;99.90
58582;DHT22;44361;51.476;5.700;2023-01-16T16:34:13;5.80;99.90
58582;DHT22;44361;51.476;5.700;2023-01-16T16:36:43;5.80;99.90
58582;DHT22;44361;51.476;5.700;2023-01-16T16:41:53;5.70;99.90
58582;DHT22;44361;51.476;5.700;2023-01-16T16:44:40;5.70;99.90
58582;DHT22;44361;51.476;5.700;2023-01-16T16:47:29;5.70;99.90
58582;DHT22;44361;51.476;5.700;2023-01-16T16:49:55;5.70;99.90
58582;DHT22;44361;51.476;5.700;2023-01-16T16:52:50;5.70;99.90
58582;DHT22;44361;51.476;5.700;2023-01-16T16:55:37;5.70;99.90
58582;DHT22;44361;51.476;5.700;2023-01-16T16:58:05;5.70;99.90
58582;DHT22;44361;51.476;5.700;2023-01-16T17:00:36;5.70;99.90
58582;DHT22;44361;51.476;5.700;2023-01-16T17:03:23;5.70;99.90
58582;DHT22;44361;51.476;5.700;2023-01-16T17:05:51;5.70;99.90
58582;DHT22;44361;51.476;5.700;2023-01-16T17:08:27;5.80;99.90
58582;DHT22;44361;51.476;5.700;2023-01-16T17:10:53;5.70;99.90
58582;DHT22;44361;51.476;5.700;2023-01-16T17:13:20;5.70;99.90
58582;DHT22;44361;51.476;5.700;2023-01-16T17:15:48;5.70;99.90
58582;DHT22;44361;51.476;5.700;2023-01-16T17:18:15;5.70;99.90
58582;DHT22;44361;51.476;5.700;2023-01-16T17:20:41;5.70;99.90
58582;DHT22;44361;51.476;5.700;2023-01-16T17:23:11;5.70;99.90
58582;DHT22;44361;51.476;5.700;2023-01-16T17:25:38;5.70;99.90
58582;DHT22;44361;51.476;5.700;2023-01-16T17:28:03;5.70;99.90
58582;DHT22;44361;51.476;5.700;2023-01-16T17:30:29;5.70;99.90
58582;DHT22;44361;51.476;5.700;2023-01-16T17:33:15;5.70;99.90
58582;DHT22;44361;51.476;5.700;2023-01-16T17:35:44;5.70;99.90
58582;DHT22;44361;51.476;5.700;2023-01-16T17:38:17;5.70;99.90
58582;DHT22;44361;51.476;5.700;2023-01-16T17:40:43;5.70;99.90
58582;DHT22;44361;51.476;5.700;2023-01-16T17:43:17;5.70;99.90
58582;DHT22;44361;51.476;5.700;2023-01-16T17:46:13;5.70;99.90
58582;DHT22;44361;51.476;5.700;2023-01-16T17:48:38;5.60;99.90
58582;DHT22;44361;51.476;5.700;2023-01-16T17:51:04;5.60;99.90
58582;DHT22;44361;51.476;5.700;2023-01-16T17:53:31;5.60;99.90
58582;DHT22;44361;51.476;5.700;2023-01-16T17:55:58;5.50;99.90
58582;DHT22;44361;51.476;5.700;2023-01-16T18:01:20;5.50;99.90
58582;DHT22;44361;51.476;5.700;2023-01-16T18:03:49;5.50;99.90
58582;DHT22;44361;51.476;5.700;2023-01-16T18:06:20;5.50;99.90
58582;DHT22;44361;51.476;5.700;2023-01-16T18:08:50;5.50;99.90
58582;DHT22;44361;51.476;5.700;2023-01-16T18:11:15;5.40;99.90